createdAt,value
2022-11-15T00:00:54.010Z,7.00
2022-11-15T00:03:26.512Z,6.03
2022-11-15T00:05:54.017Z,7.00
2022-11-15T00:08:20.978Z,6.53
2022-11-15T00:10:59.016Z,8.37
2022-11-15T00:13:26.107Z,6.93
2022-11-15T00:15:53.129Z,6.80
2022-11-15T00:18:20.618Z,8.53
2022-11-15T00:20:47.442Z,6.70
2022-11-15T00:23:14.260Z,7.33
2022-11-15T00:25:41.426Z,7.23
2022-11-15T00:28:08.556Z,7.87
2022-11-15T00:30:35.852Z,8.20
2022-11-15T00:33:04.440Z,8.57
2022-11-15T00:35:34.569Z,8.83
2022-11-15T00:38:02.510Z,7.90
2022-11-15T00:40:29.571Z,11.67
2022-11-15T00:42:56.504Z,10.07
2022-11-15T00:45:23.896Z,7.90
2022-11-15T00:47:50.907Z,8.30
2022-11-15T00:50:18.256Z,7.73
2022-11-15T00:52:45.817Z,10.73
2022-11-15T00:55:17.709Z,7.57
2022-11-15T00:57:44.769Z,9.77
2022-11-15T01:00:12.244Z,7.77
2022-11-15T01:02:39.366Z,7.23
2022-11-15T01:05:06.671Z,7.80
2022-11-15T01:07:33.655Z,6.47
2022-11-15T01:10:00.494Z,7.40
2022-11-15T01:12:27.362Z,6.33
2022-11-15T01:14:54.215Z,7.70
2022-11-15T01:17:21.297Z,10.27
2022-11-15T01:19:48.137Z,8.33
2022-11-15T01:22:14.946Z,8.00
2022-11-15T01:24:41.786Z,12.93
2022-11-15T01:27:08.782Z,7.77
2022-11-15T01:29:35.896Z,8.83
2022-11-15T01:32:02.936Z,7.20
2022-11-15T01:34:29.836Z,8.97
2022-11-15T01:36:56.632Z,8.27
2022-11-15T01:39:23.521Z,7.63
2022-11-15T01:41:50.365Z,8.87
2022-11-15T01:44:50.761Z,11.23
2022-11-15T01:47:31.541Z,6.63
2022-11-15T01:50:10.897Z,8.43
2022-11-15T01:52:40.480Z,7.50
2022-11-15T01:55:21.238Z,9.57
2022-11-15T01:57:51.885Z,10.67
2022-11-15T02:00:19.050Z,8.83
2022-11-15T02:02:45.946Z,7.40
2022-11-15T02:05:13.139Z,6.23
2022-11-15T02:07:40.447Z,6.93
2022-11-15T02:10:21.375Z,6.90
2022-11-15T02:12:49.690Z,8.03
2022-11-15T02:15:17.104Z,7.70
2022-11-15T02:18:00.970Z,8.00
2022-11-15T02:24:48.096Z,6.83
2022-11-15T02:27:52.718Z,6.90
2022-11-15T02:30:28.414Z,8.20
2022-11-15T02:33:16.986Z,7.20
2022-11-15T02:36:07.005Z,8.77
2022-11-15T02:39:02.606Z,7.40
2022-11-15T02:41:55.151Z,9.70
2022-11-15T02:44:35.686Z,7.57
2022-11-15T02:47:16.182Z,9.07
2022-11-15T02:49:48.585Z,7.43
2022-11-15T02:52:21.078Z,7.27
2022-11-15T02:54:58.801Z,7.40
2022-11-15T02:57:31.538Z,6.70
2022-11-15T03:00:11.672Z,6.27
2022-11-15T03:02:50.180Z,6.23
2022-11-15T03:05:21.003Z,6.23
2022-11-15T03:08:01.835Z,6.57
2022-11-15T03:11:03.869Z,7.93
2022-11-15T03:13:55.233Z,7.93
2022-11-15T03:16:32.583Z,6.93
2022-11-15T03:19:20.751Z,9.00
2022-11-15T03:21:48.644Z,6.40
2022-11-15T03:24:19.769Z,7.20
2022-11-15T03:26:50.849Z,6.23
2022-11-15T03:29:30.538Z,8.70
2022-11-15T03:32:03.000Z,7.90
2022-11-15T03:35:00.177Z,6.67
2022-11-15T03:37:56.994Z,6.90
2022-11-15T03:40:31.595Z,7.37
2022-11-15T03:43:22.208Z,8.37
2022-11-15T03:45:57.214Z,7.23
2022-11-15T03:48:31.883Z,7.90
2022-11-15T03:50:58.819Z,8.80
2022-11-15T03:53:25.771Z,8.10
2022-11-15T03:55:52.589Z,10.40
2022-11-15T03:58:19.427Z,11.10
2022-11-15T04:00:46.362Z,7.20
2022-11-15T04:03:13.182Z,7.70
2022-11-15T04:05:39.984Z,7.10
2022-11-15T04:08:06.857Z,7.80
2022-11-15T04:10:33.759Z,7.00
2022-11-15T04:13:00.572Z,10.43
2022-11-15T04:15:27.405Z,8.40
2022-11-15T04:17:57.270Z,8.60
2022-11-15T04:20:48.205Z,8.03
2022-11-15T04:23:38.705Z,9.47
2022-11-15T04:26:15.599Z,8.30
2022-11-15T04:29:01.415Z,11.80
2022-11-15T04:31:28.424Z,8.17
2022-11-15T04:33:55.548Z,7.97
2022-11-15T04:36:41.472Z,8.03
2022-11-15T04:39:08.504Z,7.90
2022-11-15T04:41:35.308Z,9.20
2022-11-15T04:44:02.179Z,18.30
2022-11-15T04:46:29.064Z,9.73
2022-11-15T04:48:58.835Z,8.93
2022-11-15T04:51:26.496Z,8.57
2022-11-15T04:53:53.546Z,8.30
2022-11-15T04:56:20.909Z,8.07
2022-11-15T04:58:50.773Z,8.77
2022-11-15T05:01:17.934Z,10.47
2022-11-15T05:04:04.489Z,11.53
2022-11-15T05:06:31.830Z,8.20
2022-11-15T05:08:58.780Z,11.50
2022-11-15T05:11:26.443Z,8.10
2022-11-15T05:13:53.323Z,8.00
2022-11-15T05:16:20.376Z,8.50
2022-11-15T05:18:47.272Z,8.27
2022-11-15T05:21:15.783Z,13.80
2022-11-15T05:23:42.935Z,7.67
2022-11-15T05:26:10.358Z,7.47
2022-11-15T05:28:37.778Z,12.90
2022-11-15T05:31:05.762Z,7.90
2022-11-15T05:33:33.560Z,8.00
2022-11-15T05:36:18.757Z,8.30
2022-11-15T05:38:47.153Z,11.20
2022-11-15T05:41:15.904Z,12.60
2022-11-15T05:43:44.021Z,8.87
2022-11-15T05:46:11.652Z,12.10
2022-11-15T05:48:40.803Z,8.20
2022-11-15T05:51:08.695Z,8.37
2022-11-15T05:53:37.737Z,7.63
2022-11-15T05:56:06.691Z,10.17
2022-11-15T05:58:38.264Z,9.70
2022-11-15T06:01:05.888Z,8.50
2022-11-15T06:03:33.187Z,9.13
2022-11-15T06:06:00.192Z,9.30
2022-11-15T06:08:26.993Z,9.70
2022-11-15T06:10:53.927Z,10.00
2022-11-15T06:13:20.821Z,8.87
2022-11-15T06:15:47.822Z,11.03
2022-11-15T06:18:14.661Z,9.67
2022-11-15T06:20:41.662Z,13.77
2022-11-15T06:23:08.466Z,12.53
2022-11-15T06:25:35.272Z,10.30
2022-11-15T06:28:02.095Z,10.50
2022-11-15T06:30:29.024Z,23.90
2022-11-15T06:33:04.066Z,78.33
2022-11-15T06:35:31.792Z,72.37
2022-11-15T06:38:07.919Z,80.63
2022-11-15T06:40:39.015Z,81.47
2022-11-15T06:43:06.900Z,70.50
2022-11-15T06:45:34.042Z,42.90
2022-11-15T06:48:00.861Z,49.23
2022-11-15T06:50:27.726Z,47.30
2022-11-15T06:52:55.665Z,27.50
2022-11-15T06:55:22.539Z,20.13
2022-11-15T06:57:53.238Z,21.97
2022-11-15T07:00:21.961Z,16.63
2022-11-15T07:02:49.175Z,16.20
2022-11-15T07:05:16.850Z,18.07
2022-11-15T07:07:43.941Z,11.97
2022-11-15T07:10:11.051Z,19.13
2022-11-15T07:12:37.921Z,19.10
2022-11-15T07:15:05.187Z,15.13
2022-11-15T07:17:31.991Z,19.70
2022-11-15T07:19:58.858Z,16.57
2022-11-15T07:22:25.766Z,13.87
2022-11-15T07:24:52.614Z,18.70
2022-11-15T07:27:19.684Z,22.20
2022-11-15T07:29:46.878Z,15.60
2022-11-15T07:32:13.696Z,12.80
2022-11-15T07:34:40.513Z,11.93
2022-11-15T07:37:07.348Z,15.03
2022-11-15T07:39:34.206Z,11.67
2022-11-15T07:42:19.718Z,16.73
2022-11-15T07:44:46.511Z,15.33
2022-11-15T07:47:13.646Z,11.50
2022-11-15T07:49:40.619Z,12.27
2022-11-15T07:52:07.596Z,9.70
2022-11-15T07:54:34.505Z,10.53
2022-11-15T07:57:06.884Z,13.60
2022-11-15T07:59:35.983Z,10.50
2022-11-15T08:02:03.205Z,9.90
2022-11-15T08:04:30.086Z,9.87
2022-11-15T08:06:58.351Z,12.23
2022-11-15T08:09:25.304Z,11.37
2022-11-15T08:11:52.174Z,9.93
2022-11-15T08:14:19.022Z,9.90
2022-11-15T08:16:45.864Z,11.60
2022-11-15T08:19:12.716Z,11.17
2022-11-15T08:21:39.533Z,11.80
2022-11-15T08:24:07.004Z,9.10
2022-11-15T08:26:33.796Z,7.80
2022-11-15T08:29:00.674Z,12.33
2022-11-15T08:31:27.518Z,8.47
2022-11-15T08:33:54.883Z,9.63
2022-11-15T08:36:21.852Z,8.90
2022-11-15T08:38:48.796Z,8.20
2022-11-15T08:41:26.599Z,11.73
2022-11-15T08:43:53.444Z,8.40
2022-11-15T08:46:20.293Z,11.50
2022-11-15T08:48:47.307Z,9.53
2022-11-15T08:51:14.246Z,15.40
2022-11-15T08:53:41.397Z,12.77
2022-11-15T08:56:10.034Z,8.07
2022-11-15T08:58:37.670Z,11.20
2022-11-15T09:01:06.029Z,9.53
2022-11-15T09:03:33.132Z,9.37
2022-11-15T09:06:01.724Z,8.50
2022-11-15T09:08:57.358Z,8.13
2022-11-15T09:11:21.393Z,7.93
2022-11-15T09:13:48.508Z,9.53
2022-11-15T09:16:16.319Z,7.83
2022-11-15T09:18:43.306Z,8.10
2022-11-15T09:21:10.503Z,10.80
2022-11-15T09:23:37.446Z,8.30
2022-11-15T09:26:05.964Z,11.50
2022-11-15T09:28:34.496Z,7.33
2022-11-15T09:31:03.514Z,7.70
2022-11-15T09:33:31.011Z,6.93
2022-11-15T09:36:06.870Z,11.47
2022-11-15T09:38:34.836Z,10.03
2022-11-15T09:41:13.819Z,7.73
2022-11-15T09:43:59.385Z,6.70
2022-11-15T09:46:48.214Z,9.17
2022-11-15T09:49:17.251Z,8.30
2022-11-15T09:51:48.240Z,11.63
2022-11-15T09:54:52.119Z,8.90
2022-11-15T09:57:33.062Z,7.00
2022-11-15T10:03:10.162Z,9.23
2022-11-15T10:05:44.488Z,10.17
2022-11-15T10:08:20.132Z,9.33
2022-11-15T10:11:00.550Z,8.20
2022-11-15T10:13:41.026Z,14.20
2022-11-15T10:16:36.936Z,7.73
2022-11-15T10:19:51.232Z,7.43
2022-11-15T10:22:23.471Z,6.90
2022-11-15T10:24:53.344Z,21.47
2022-11-15T10:27:20.842Z,25.77
2022-11-15T10:29:50.904Z,15.27
2022-11-15T10:32:20.305Z,11.70
2022-11-15T10:34:49.010Z,12.60
2022-11-15T10:37:27.769Z,7.50
2022-11-15T10:40:23.982Z,6.60
2022-11-15T10:43:15.544Z,5.50
2022-11-15T10:45:43.036Z,5.57
2022-11-15T10:48:12.821Z,5.20
2022-11-15T10:50:41.787Z,5.50
2022-11-15T10:53:34.589Z,5.43
2022-11-15T10:56:09.308Z,5.53
2022-11-15T10:58:45.514Z,6.30
2022-11-15T11:01:24.090Z,5.63
2022-11-15T11:04:10.458Z,6.00
2022-11-15T11:07:20.806Z,5.87
2022-11-15T11:09:58.473Z,6.70
2022-11-15T11:12:33.490Z,5.70
2022-11-15T11:15:02.650Z,5.80
2022-11-15T11:17:40.075Z,5.70
2022-11-15T11:20:28.584Z,5.90
2022-11-15T11:23:15.476Z,7.13
2022-11-15T11:26:19.035Z,5.50
2022-11-15T11:29:21.120Z,8.63
2022-11-15T11:32:09.928Z,5.63
2022-11-15T11:35:07.862Z,6.60
2022-11-15T11:37:55.662Z,5.53
2022-11-15T11:40:25.270Z,5.73
2022-11-15T11:43:00.308Z,5.40
2022-11-15T11:46:06.160Z,4.87
2022-11-15T11:49:14.703Z,5.60
2022-11-15T11:51:51.833Z,5.30
2022-11-15T11:54:47.779Z,7.20
2022-11-15T11:57:24.852Z,5.40
2022-11-15T11:59:57.024Z,6.43
2022-11-15T12:02:35.714Z,5.43
2022-11-15T12:05:10.998Z,6.13
2022-11-15T12:07:40.568Z,6.70
2022-11-15T12:10:23.232Z,8.10
2022-11-15T12:13:05.944Z,6.23
2022-11-15T12:16:19.030Z,4.33
2022-11-15T12:18:52.377Z,6.30
2022-11-15T12:21:51.346Z,4.80
2022-11-15T12:24:40.776Z,4.50
2022-11-15T12:27:29.192Z,7.77
2022-11-15T12:30:00.293Z,4.37
2022-11-15T12:32:36.849Z,5.80
2022-11-15T12:35:07.500Z,4.60
2022-11-15T12:37:38.701Z,4.60
2022-11-15T12:40:19.492Z,4.50
2022-11-15T12:43:14.033Z,6.73
2022-11-15T12:45:43.522Z,5.83
2022-11-15T12:48:19.577Z,9.40
2022-11-15T12:50:55.147Z,7.70
2022-11-15T12:53:25.037Z,4.67
2022-11-15T12:56:16.038Z,6.47
2022-11-15T12:58:58.683Z,12.13
2022-11-15T13:01:35.079Z,7.60
2022-11-15T13:04:20.145Z,9.97
2022-11-15T13:06:48.498Z,6.03
2022-11-15T13:09:33.356Z,8.73
2022-11-15T13:12:04.486Z,5.60
2022-11-15T13:14:43.316Z,8.53
2022-11-15T13:17:42.418Z,5.93
2022-11-15T13:20:09.239Z,5.90
2022-11-15T13:23:00.553Z,6.73
2022-11-15T13:26:02.057Z,5.90
2022-11-15T13:28:32.314Z,6.50
2022-11-15T13:31:02.524Z,6.27
2022-11-15T13:33:35.971Z,6.70
2022-11-15T13:36:23.063Z,6.80
2022-11-15T13:39:15.213Z,8.30
2022-11-15T13:41:51.110Z,9.63
2022-11-15T13:44:23.503Z,7.77
2022-11-15T13:47:01.140Z,7.77
2022-11-15T13:49:32.384Z,8.10
2022-11-15T13:52:01.393Z,8.00
2022-11-15T13:54:36.510Z,8.27
2022-11-15T13:57:11.252Z,7.80
2022-11-15T13:59:55.780Z,8.70
2022-11-15T14:02:28.012Z,8.17
2022-11-15T14:05:20.059Z,12.43
2022-11-15T14:08:00.158Z,13.10
2022-11-15T14:10:31.043Z,7.43
2022-11-15T14:12:59.157Z,11.37
2022-11-15T14:15:40.802Z,13.93
2022-11-15T14:18:07.639Z,17.93
2022-11-15T14:20:37.747Z,8.00
2022-11-15T14:23:25.856Z,10.13
2022-11-15T14:25:58.051Z,8.30
2022-11-15T14:28:24.832Z,12.80
2022-11-15T14:30:57.401Z,8.07
2022-11-15T14:33:35.698Z,12.00
2022-11-15T14:36:14.239Z,13.13
2022-11-15T14:38:43.779Z,11.70
2022-11-15T14:41:29.000Z,11.03
2022-11-15T14:43:55.805Z,13.23
2022-11-15T14:46:22.622Z,8.30
2022-11-15T14:48:49.709Z,9.07
2022-11-15T14:51:19.790Z,8.30
2022-11-15T14:53:47.638Z,8.87
2022-11-15T14:56:15.897Z,12.13
2022-11-15T14:58:42.778Z,14.53
2022-11-15T15:01:24.372Z,18.20
2022-11-15T15:03:53.091Z,32.07
2022-11-15T15:06:20.880Z,21.97
2022-11-15T15:08:49.470Z,48.67
2022-11-15T15:11:21.546Z,55.73
2022-11-15T15:13:48.577Z,31.63
2022-11-15T15:16:15.471Z,16.90
2022-11-15T15:18:42.347Z,10.30
2022-11-15T15:21:23.438Z,9.37
2022-11-15T15:23:50.635Z,9.13
2022-11-15T15:26:17.605Z,14.23
2022-11-15T15:28:44.585Z,9.90
2022-11-15T15:31:11.945Z,15.13
2022-11-15T15:33:38.972Z,16.13
2022-11-15T15:36:06.131Z,13.03
2022-11-15T15:38:33.239Z,9.27
2022-11-15T15:41:02.948Z,12.17
2022-11-15T15:43:29.826Z,18.13
2022-11-15T15:45:56.692Z,11.13
2022-11-15T15:48:23.500Z,13.40
2022-11-15T15:50:50.421Z,15.80
2022-11-15T15:53:18.332Z,13.23
2022-11-15T15:55:45.234Z,14.73
2022-11-15T15:58:12.066Z,10.40
2022-11-15T16:00:39.841Z,9.20
2022-11-15T16:03:06.669Z,13.10
2022-11-15T16:05:33.493Z,9.50
2022-11-15T16:08:00.442Z,10.13
2022-11-15T16:10:29.920Z,10.67
2022-11-15T16:12:58.232Z,9.10
2022-11-15T16:15:27.294Z,11.40
2022-11-15T16:17:56.633Z,11.70
2022-11-15T16:20:38.520Z,8.13
2022-11-15T16:23:10.335Z,10.93
2022-11-15T16:25:45.572Z,7.77
2022-11-15T16:28:23.509Z,12.83
2022-11-15T16:30:59.981Z,9.93
2022-11-15T16:33:26.817Z,10.37
2022-11-15T16:35:53.758Z,11.20
2022-11-15T16:38:20.661Z,11.17
2022-11-15T16:40:47.857Z,21.13
2022-11-15T16:43:15.362Z,19.73
2022-11-15T16:45:42.304Z,10.67
2022-11-15T16:48:26.776Z,10.23
2022-11-15T16:50:58.098Z,7.47
2022-11-15T16:53:26.520Z,8.60
2022-11-15T16:55:54.895Z,9.70
2022-11-15T16:58:22.015Z,20.23
2022-11-15T17:00:54.029Z,54.33
2022-11-15T17:03:22.497Z,14.03
2022-11-15T17:05:49.864Z,7.83
2022-11-15T17:08:16.790Z,8.20
2022-11-15T17:10:44.279Z,9.60
2022-11-15T17:13:14.717Z,8.37
2022-11-15T17:15:41.560Z,9.40
2022-11-15T17:18:11.948Z,12.00
2022-11-15T17:20:40.653Z,8.20
2022-11-15T17:23:12.249Z,9.67
2022-11-15T17:25:39.094Z,11.67
2022-11-15T17:28:05.937Z,8.30
2022-11-15T17:30:32.700Z,9.20
2022-11-15T17:33:01.083Z,9.53
2022-11-15T17:35:27.878Z,6.73
2022-11-15T17:37:54.712Z,7.70
2022-11-15T17:40:21.507Z,7.73
2022-11-15T17:42:48.375Z,7.63
2022-11-15T17:45:15.278Z,8.57
2022-11-15T17:47:42.117Z,8.53
2022-11-15T17:50:09.933Z,10.77
2022-11-15T17:52:36.809Z,6.90
2022-11-15T17:55:03.837Z,6.53
2022-11-15T17:57:30.707Z,7.70
2022-11-15T17:59:57.504Z,24.80
2022-11-15T18:02:24.365Z,18.03
2022-11-15T18:04:51.256Z,9.50
2022-11-15T18:07:18.096Z,8.37
2022-11-15T18:09:45.530Z,8.30
2022-11-15T18:12:12.538Z,7.37
2022-11-15T18:14:39.651Z,7.37
2022-11-15T18:17:06.881Z,7.23
2022-11-15T18:19:33.971Z,7.63
2022-11-15T18:22:01.799Z,9.83
2022-11-15T18:24:31.377Z,6.97
2022-11-15T18:27:00.131Z,6.33
2022-11-15T18:29:27.781Z,6.97
2022-11-15T18:31:58.958Z,7.00
2022-11-15T18:34:32.041Z,7.37
2022-11-15T18:36:59.857Z,8.13
2022-11-15T18:39:26.833Z,7.93
2022-11-15T18:41:53.655Z,8.80
2022-11-15T18:44:20.508Z,6.70
2022-11-15T18:46:47.522Z,7.10
2022-11-15T18:49:16.636Z,8.87
2022-11-15T18:51:43.937Z,6.70
2022-11-15T18:54:13.622Z,6.10
2022-11-15T18:56:41.480Z,9.20
2022-11-15T18:59:08.833Z,9.17
2022-11-15T19:01:40.564Z,6.47
2022-11-15T19:04:17.528Z,7.07
2022-11-15T19:06:47.268Z,7.80
2022-11-15T19:09:16.300Z,7.40
2022-11-15T19:11:44.576Z,7.00
2022-11-15T19:14:13.865Z,9.87
2022-11-15T19:16:46.378Z,7.63
2022-11-15T19:19:18.869Z,12.37
2022-11-15T19:21:45.830Z,10.40
2022-11-15T19:24:12.923Z,10.37
2022-11-15T19:26:40.132Z,10.20
2022-11-15T19:29:10.376Z,8.00
2022-11-15T19:31:37.786Z,12.57
2022-11-15T19:34:06.214Z,6.63
2022-11-15T19:36:39.438Z,7.60
2022-11-15T19:39:09.991Z,7.90
2022-11-15T19:41:39.191Z,7.40
2022-11-15T19:44:06.967Z,12.57
2022-11-15T19:46:34.685Z,11.00
2022-11-15T19:49:01.823Z,10.00
2022-11-15T19:51:30.959Z,14.37
2022-11-15T19:54:01.443Z,13.40
2022-11-15T19:56:28.340Z,9.03
2022-11-15T19:58:56.431Z,9.40
2022-11-15T20:01:31.839Z,13.13
2022-11-15T20:04:00.137Z,9.03
2022-11-15T20:06:29.871Z,12.53
2022-11-15T20:08:57.729Z,8.93
2022-11-15T20:11:24.929Z,9.17
2022-11-15T20:13:52.221Z,8.17
2022-11-15T20:16:21.538Z,7.53
2022-11-15T20:18:49.584Z,7.00
2022-11-15T20:21:17.153Z,8.20
2022-11-15T20:23:44.433Z,7.83
2022-11-15T20:26:11.867Z,8.13
2022-11-15T20:28:40.219Z,7.30
2022-11-15T20:31:08.102Z,7.30
2022-11-15T20:33:35.231Z,9.80
2022-11-15T20:36:08.226Z,8.03
2022-11-15T20:38:35.338Z,8.63
2022-11-15T20:41:02.426Z,17.40
2022-11-15T20:43:29.754Z,9.93
2022-11-15T20:45:56.598Z,16.13
2022-11-15T20:48:23.509Z,7.40
2022-11-15T20:50:50.360Z,9.30
2022-11-15T20:53:19.882Z,7.70
2022-11-15T20:55:48.752Z,7.00
2022-11-15T20:58:17.377Z,6.77
2022-11-15T21:00:45.820Z,6.33
2022-11-15T21:03:13.952Z,6.70
2022-11-15T21:05:43.239Z,8.07
2022-11-15T21:08:11.366Z,6.30
2022-11-15T21:10:57.092Z,7.17
2022-11-15T21:13:23.944Z,6.60
2022-11-15T21:15:51.104Z,7.67
2022-11-15T21:18:17.925Z,6.90
2022-11-15T21:20:44.957Z,8.17
2022-11-15T21:23:12.362Z,7.00
2022-11-15T21:25:39.195Z,7.07
2022-11-15T21:28:06.019Z,6.80
2022-11-15T21:30:32.852Z,6.67
2022-11-15T21:32:59.639Z,7.03
2022-11-15T21:35:26.505Z,6.00
2022-11-15T21:37:56.709Z,6.73
2022-11-15T21:40:25.029Z,6.47
2022-11-15T21:42:51.848Z,7.40
2022-11-15T21:45:18.628Z,9.70
2022-11-15T21:47:46.594Z,7.23
2022-11-15T21:50:14.205Z,7.13
2022-11-15T21:52:41.614Z,6.70
2022-11-15T21:55:09.094Z,7.00
2022-11-15T21:57:35.990Z,7.30
2022-11-15T22:00:21.123Z,6.83
2022-11-15T22:02:48.151Z,7.33
2022-11-15T22:05:15.033Z,7.53
2022-11-15T22:07:41.931Z,7.07
2022-11-15T22:10:09.105Z,8.37
2022-11-15T22:12:36.213Z,7.87
2022-11-15T22:15:03.091Z,7.13
2022-11-15T22:17:49.914Z,7.93
2022-11-15T22:20:43.011Z,8.47
2022-11-15T22:23:04.657Z,7.77
2022-11-15T22:25:32.486Z,7.50
2022-11-15T22:27:59.375Z,9.37
2022-11-15T22:30:26.347Z,8.80
2022-11-15T22:32:53.239Z,9.30
2022-11-15T22:35:20.068Z,10.63
2022-11-15T22:37:46.954Z,9.50
2022-11-15T22:40:13.824Z,10.90
2022-11-15T22:42:40.705Z,8.60
2022-11-15T22:45:07.830Z,9.33
2022-11-15T22:47:34.756Z,9.53
2022-11-15T22:50:01.707Z,10.97
2022-11-15T22:52:28.634Z,8.13
2022-11-15T22:54:55.509Z,8.27
2022-11-15T22:57:22.448Z,8.90
2022-11-15T22:59:49.359Z,9.33
2022-11-15T23:02:16.218Z,18.17
2022-11-15T23:04:43.187Z,9.67
2022-11-15T23:07:10.121Z,10.03
2022-11-15T23:09:37.166Z,9.93
2022-11-15T23:12:22.610Z,9.77
2022-11-15T23:14:49.530Z,10.40
2022-11-15T23:17:16.471Z,10.10
2022-11-15T23:19:43.312Z,10.33
2022-11-15T23:22:28.691Z,9.50
2022-11-15T23:24:55.943Z,10.67
2022-11-15T23:27:23.943Z,9.07
2022-11-15T23:30:09.476Z,9.70
2022-11-15T23:32:54.825Z,9.30
2022-11-15T23:35:21.740Z,9.50
2022-11-15T23:37:48.704Z,10.43
2022-11-15T23:40:15.940Z,11.10
2022-11-15T23:42:42.820Z,9.37
2022-11-15T23:45:10.017Z,10.13
2022-11-15T23:47:36.999Z,9.63
2022-11-15T23:50:04.566Z,12.83
2022-11-15T23:52:31.515Z,12.13
2022-11-15T23:54:58.499Z,10.30
2022-11-15T23:57:25.357Z,10.50
2022-11-15T23:59:52.284Z,10.50
